createdAt,value
2017-07-17T11:32:42.851Z,5188
2017-07-17T11:32:55.308Z,5196
2017-07-17T11:33:08.203Z,5220
2017-07-17T11:33:21.668Z,5220
2017-07-17T11:33:34.562Z,5224
2017-07-17T11:33:48.026Z,5232
2017-07-17T11:34:00.954Z,5236
2017-07-17T11:34:14.369Z,5232
2017-07-17T11:34:27.340Z,5236
2017-07-17T11:34:40.833Z,5248
2017-07-17T11:34:53.816Z,5260
2017-07-17T11:35:07.205Z,5244
2017-07-17T11:35:20.175Z,5252
2017-07-17T11:35:32.052Z,5240
2017-07-17T11:35:44.438Z,5232
2017-07-17T11:35:57.942Z,5256
2017-07-17T11:36:10.319Z,5240
2017-07-17T11:36:23.828Z,5268
2017-07-17T11:36:37.277Z,5272
2017-07-17T11:36:50.214Z,5272
2017-07-17T11:37:03.712Z,5280
2017-07-17T11:37:16.093Z,5280
2017-07-17T11:37:29.017Z,5288
2017-07-17T11:37:41.397Z,5284
2017-07-17T11:37:54.742Z,5284
2017-07-17T11:38:08.199Z,5296
2017-07-17T11:38:21.099Z,5292
2017-07-17T11:38:33.522Z,5284
2017-07-17T11:38:46.429Z,5280
2017-07-17T11:38:59.311Z,5300
2017-07-17T11:39:12.739Z,5308
2017-07-17T11:39:26.196Z,5288
2017-07-17T11:39:39.160Z,5324
2017-07-17T11:39:51.562Z,5312
2017-07-17T11:40:04.476Z,5316
2017-07-17T11:40:17.436Z,5328
2017-07-17T11:40:30.917Z,5348
2017-07-17T11:40:44.372Z,5360
2017-07-17T11:40:56.771Z,5320
2017-07-17T11:41:09.688Z,5324
2017-07-17T11:41:22.638Z,5340
2017-07-17T11:41:35.585Z,5352
2017-07-17T11:41:47.963Z,5348
2017-07-17T11:42:00.361Z,5356
2017-07-17T11:42:12.874Z,5364
2017-07-17T11:42:25.806Z,5372
2017-07-17T11:42:38.216Z,5360
2017-07-17T11:42:50.615Z,5388
2017-07-17T11:43:04.060Z,5392
2017-07-17T11:43:17.469Z,5380
2017-07-17T11:43:30.391Z,5396
2017-07-17T11:43:43.389Z,5396
2017-07-17T11:43:55.811Z,5408
2017-07-17T11:44:08.209Z,5404
2017-07-17T11:44:20.567Z,5416
2017-07-17T11:44:33.499Z,5428
2017-07-17T11:44:46.966Z,5404
2017-07-17T11:45:00.404Z,5416
2017-07-17T11:45:13.887Z,5424
2017-07-17T11:45:26.272Z,5424
2017-07-17T11:45:38.621Z,5424
2017-07-17T11:45:51.028Z,5440
2017-07-17T11:56:14.838Z,5636
2017-07-17T11:56:28.238Z,5612
2017-07-17T11:56:41.715Z,5624
2017-07-17T11:56:55.107Z,5612
2017-07-17T11:57:08.581Z,5612
2017-07-17T11:58:20.390Z,5632
2017-07-17T11:58:33.820Z,5632
2017-07-17T11:58:46.749Z,5648
2017-07-17T11:59:00.229Z,5640
2017-07-17T11:59:13.696Z,5652
2017-07-17T11:59:27.097Z,5668
2017-07-17T11:59:40.486Z,5652
2017-07-17T11:59:53.418Z,5672
2017-07-17T12:00:06.311Z,5660
2017-07-17T12:00:19.782Z,5656
2017-07-17T12:00:33.218Z,5688
2017-07-17T12:00:46.719Z,5660
2017-07-17T12:01:00.139Z,5672
2017-07-17T12:01:13.545Z,5708
2017-07-17T12:01:26.953Z,5688
2017-07-17T12:01:39.899Z,5676
2017-07-17T12:01:53.339Z,5704
2017-07-17T12:02:06.750Z,5708
2017-07-17T12:02:20.152Z,5700
2017-07-17T12:02:33.595Z,5696
2017-07-17T12:02:47.013Z,5732
2017-07-17T12:03:00.479Z,5724
2017-07-17T12:03:13.926Z,5720
2017-07-17T12:03:27.325Z,5744
2017-07-17T12:03:40.758Z,5732
2017-07-17T12:03:54.225Z,5768
2017-07-17T12:04:07.658Z,5740
2017-07-17T12:04:21.139Z,5732
2017-07-17T12:04:34.603Z,5740
2017-07-17T12:04:47.478Z,5748
2017-07-17T12:05:46.657Z,5764
2017-07-17T12:05:59.590Z,5752
2017-07-17T12:06:12.538Z,5760
2017-07-17T12:06:25.479Z,5772
2017-07-17T12:06:38.913Z,5792
2017-07-17T12:06:51.857Z,5772
2017-07-17T12:07:04.779Z,5772
2017-07-17T12:07:17.684Z,5728
2017-07-17T12:07:30.590Z,5756
2017-07-17T12:07:43.501Z,5776
2017-07-17T12:07:55.869Z,5784
2017-07-17T12:08:09.344Z,5796
2017-07-17T12:08:22.538Z,5800
2017-07-17T12:08:35.997Z,5808
2017-07-17T12:08:48.894Z,5812
2017-07-17T12:09:02.348Z,5792
2017-07-17T12:09:15.257Z,5768
2017-07-17T12:09:28.693Z,5788
2017-07-17T12:09:41.040Z,5812
2017-07-17T12:09:54.538Z,5828
2017-07-17T12:10:08.001Z,5796
2017-07-17T12:10:21.453Z,5852
2017-07-17T12:10:34.950Z,5860
2017-07-17T12:10:47.831Z,5828
2017-07-17T12:11:01.241Z,5840
2017-07-17T12:11:14.131Z,5828
2017-07-17T12:11:27.253Z,5840
2017-07-17T12:11:40.778Z,5848
2017-07-17T12:11:54.216Z,5884
2017-07-17T12:12:06.574Z,5876
2017-07-17T12:12:18.946Z,5856
2017-07-17T12:12:31.877Z,5860
2017-07-17T12:12:44.783Z,5868
2017-07-17T12:12:57.709Z,5852
2017-07-17T12:13:11.147Z,5872
2017-07-17T12:13:24.571Z,5908
2017-07-17T12:13:36.996Z,5836
2017-07-17T12:13:49.884Z,5860
2017-07-17T12:14:02.845Z,5876
2017-07-17T12:14:15.712Z,5868
2017-07-17T12:14:28.067Z,5888
2017-07-17T12:14:40.999Z,5872
2017-07-17T12:14:53.947Z,5880
2017-07-17T12:15:06.884Z,5884
2017-07-17T12:15:20.330Z,5916
2017-07-17T12:15:33.812Z,5872
2017-07-17T12:15:46.221Z,5900
2017-07-17T12:15:58.617Z,5948
2017-07-17T12:16:12.072Z,5908
2017-07-17T12:16:24.966Z,5912
2017-07-17T12:16:37.867Z,5916
2017-07-17T12:16:50.794Z,5920
2017-07-17T12:17:04.249Z,5912
2017-07-17T12:17:17.702Z,5912
2017-07-17T12:17:30.093Z,5908
2017-07-17T12:17:43.006Z,5908
2017-07-17T12:17:55.933Z,5960
2017-07-17T12:18:09.393Z,5916
2017-07-17T12:18:22.854Z,5928
2017-07-17T12:18:36.506Z,5932
2017-07-17T12:18:49.360Z,5936
2017-07-17T12:19:01.712Z,5940
2017-07-17T12:19:15.162Z,5928
2017-07-17T12:19:28.602Z,5940
2017-07-17T12:19:42.107Z,5956
2017-07-17T12:19:53.990Z,5940
2017-07-17T12:20:07.469Z,5980
2017-07-17T12:20:20.994Z,5948
2017-07-17T12:20:33.874Z,5968
2017-07-17T12:20:46.230Z,5960
2017-07-17T12:20:59.184Z,5968
2017-07-17T12:21:12.644Z,5960
2017-07-17T12:21:24.468Z,5964
2017-07-17T12:21:37.946Z,5956
2017-07-17T12:21:50.831Z,5964
2017-07-17T12:22:03.252Z,5964
2017-07-17T12:22:16.742Z,5960
2017-07-17T12:22:29.083Z,5964
2017-07-17T12:22:41.474Z,5964
2017-07-17T12:22:54.967Z,6008
2017-07-17T12:23:08.378Z,5960
2017-07-17T12:23:21.783Z,5960
2017-07-17T12:23:34.679Z,5972
2017-07-17T12:23:48.102Z,5972
2017-07-17T12:24:00.448Z,5968
2017-07-17T12:24:13.917Z,5948
2017-07-17T12:24:26.251Z,5964
2017-07-17T12:24:39.759Z,5976
2017-07-17T12:24:53.310Z,5960
2017-07-17T12:25:06.251Z,5980
2017-07-17T12:25:18.604Z,6020
2017-07-17T12:25:32.012Z,5976
2017-07-17T12:25:44.404Z,5976
2017-07-17T12:25:57.931Z,5972
2017-07-17T12:26:10.284Z,5992
2017-07-17T12:26:23.740Z,6020
2017-07-17T12:26:36.617Z,6024
2017-07-17T12:26:49.464Z,5972
2017-07-17T12:27:02.970Z,5980
2017-07-17T12:27:15.861Z,6000
2017-07-17T12:27:29.324Z,6044
2017-07-17T12:27:42.186Z,6036
2017-07-17T12:27:55.663Z,6016
2017-07-17T12:28:08.617Z,6008
2017-07-17T12:28:22.085Z,6004
2017-07-17T12:28:34.984Z,6012
2017-07-17T12:28:48.453Z,6020
2017-07-17T12:29:01.930Z,6040
2017-07-17T12:29:14.815Z,6040
2017-07-17T12:29:27.730Z,6020
2017-07-17T12:29:40.655Z,6036
2017-07-17T12:29:54.110Z,6028
2017-07-17T12:30:06.494Z,6040
2017-07-17T12:30:19.953Z,6052
2017-07-17T12:30:32.889Z,6048
2017-07-17T12:30:46.423Z,6056
2017-07-17T12:30:59.864Z,6052
2017-07-17T12:31:13.319Z,6056
2017-07-17T12:31:25.634Z,6052
2017-07-17T12:31:38.540Z,6032
2017-07-17T12:31:51.972Z,6020
2017-07-17T12:32:04.878Z,6072
2017-07-17T12:32:18.296Z,6068
2017-07-17T12:32:31.218Z,6028
2017-07-17T12:32:44.101Z,6052
2017-07-17T12:32:57.444Z,6060
2017-07-17T12:33:10.375Z,6064
2017-07-17T12:33:23.364Z,6060
2017-07-17T12:33:36.281Z,6072
2017-07-17T12:33:49.176Z,6064
2017-07-17T12:34:02.659Z,6096
2017-07-17T12:34:15.576Z,6100
2017-07-17T12:34:29.048Z,6076
2017-07-17T12:34:41.950Z,6100
2017-07-17T12:34:55.356Z,6064
2017-07-17T12:35:09.211Z,6108
2017-07-17T12:35:22.926Z,6088
2017-07-17T12:35:35.859Z,6072
2017-07-17T12:35:48.255Z,6068
2017-07-17T12:36:01.145Z,6072
2017-07-17T12:36:13.546Z,6088
2017-07-17T12:36:27.054Z,6080
2017-07-17T12:36:39.928Z,6080
2017-07-17T12:36:53.314Z,6104
2017-07-17T12:37:05.728Z,6088
2017-07-17T12:37:19.164Z,6084
2017-07-17T12:37:32.631Z,6120
2017-07-17T12:37:46.089Z,6140
2017-07-17T12:37:59.037Z,6120
2017-07-17T12:38:11.471Z,6116
2017-07-17T12:38:23.809Z,6112
2017-07-17T12:38:37.279Z,6112
2017-07-17T12:38:50.694Z,6116
2017-07-17T12:39:04.174Z,6120
2017-07-17T12:39:16.527Z,6128
2017-07-17T12:39:30.047Z,6136
2017-07-17T12:39:43.480Z,6148
2017-07-17T12:39:56.855Z,6148
2017-07-17T12:40:09.756Z,6120
2017-07-17T12:40:22.732Z,6140
2017-07-17T12:40:36.161Z,6132
2017-07-17T12:40:49.050Z,6120
2017-07-17T12:41:02.476Z,6152
2017-07-17T12:41:15.925Z,6144
2017-07-17T12:41:29.376Z,6172
2017-07-17T12:41:42.775Z,6168
2017-07-17T12:41:55.750Z,6192
2017-07-17T12:42:08.700Z,6168
2017-07-17T12:42:22.166Z,6152
2017-07-17T12:42:35.088Z,6176
2017-07-17T12:42:48.045Z,6172
2017-07-17T12:43:00.972Z,6208
2017-07-17T12:43:14.442Z,6188
2017-07-17T12:43:27.378Z,6236
2017-07-17T12:43:40.786Z,6216
2017-07-17T12:43:53.664Z,6156
2017-07-17T12:44:07.064Z,6176
2017-07-17T12:44:20.493Z,6168
2017-07-17T12:44:33.405Z,6164
2017-07-17T12:44:46.396Z,6172
2017-07-17T12:44:59.327Z,6176
2017-07-17T12:45:12.283Z,6156
2017-07-17T12:45:25.153Z,6172
2017-07-17T12:45:38.616Z,6200
2017-07-17T12:45:51.553Z,6184
2017-07-17T12:46:05.006Z,6184
2017-07-17T12:46:17.959Z,6204
2017-07-17T12:46:31.426Z,6232
2017-07-17T12:46:44.886Z,6228
2017-07-17T12:46:58.385Z,6200
2017-07-17T12:47:11.280Z,6200
2017-07-17T12:47:23.125Z,6188
2017-07-17T12:47:36.560Z,6200
2017-07-17T12:47:49.944Z,6216
2017-07-17T12:48:03.399Z,6204
2017-07-17T12:48:16.274Z,6196
2017-07-17T12:48:29.737Z,6224
2017-07-17T12:48:43.625Z,6228
2017-07-17T12:48:56.575Z,6220
2017-07-17T12:49:08.975Z,6220
2017-07-17T12:49:22.477Z,6228
2017-07-17T12:49:35.428Z,6228
2017-07-17T12:49:48.344Z,6220
2017-07-17T12:50:01.826Z,6220
2017-07-17T12:50:15.234Z,6220
2017-07-17T12:50:28.736Z,6236
2017-07-17T12:50:41.609Z,6228
2017-07-17T12:50:55.006Z,6240
2017-07-17T12:51:08.479Z,6240
2017-07-17T12:51:20.844Z,6200
2017-07-17T12:51:33.756Z,6252
2017-07-17T12:51:46.662Z,6240
2017-07-17T12:52:00.126Z,6292
2017-07-17T12:52:13.599Z,6240
2017-07-17T12:52:27.084Z,6236
2017-07-17T12:52:39.449Z,6216
2017-07-17T12:52:51.314Z,6252
2017-07-17T12:53:04.148Z,6256
2017-07-17T12:53:17.663Z,6248
2017-07-17T12:53:30.532Z,6248
2017-07-17T12:53:44.021Z,6232
2017-07-17T12:53:57.004Z,6276
2017-07-17T12:54:09.919Z,6276
2017-07-17T12:54:23.368Z,6264
2017-07-17T12:54:36.815Z,6256
2017-07-17T12:54:49.161Z,6248
2017-07-17T12:55:01.503Z,6260
2017-07-17T12:55:13.333Z,6272
2017-07-17T12:55:26.818Z,6252
2017-07-17T12:55:40.201Z,6272
2017-07-17T12:55:53.670Z,6272
2017-07-17T12:56:07.111Z,6332
2017-07-17T12:56:19.529Z,6260
2017-07-17T12:56:32.468Z,6268
2017-07-17T12:56:45.919Z,6276
2017-07-17T12:56:59.323Z,6272
2017-07-17T12:57:12.763Z,6300
2017-07-17T12:57:25.663Z,6284
2017-07-17T12:57:38.552Z,6252
2017-07-17T12:57:51.968Z,6296
2017-07-17T12:58:05.351Z,6280
2017-07-17T12:58:18.283Z,6280
2017-07-17T12:58:31.768Z,6252
2017-07-17T12:58:45.335Z,6276
2017-07-17T12:58:58.287Z,6288
2017-07-17T12:59:10.114Z,6264
2017-07-17T12:59:23.587Z,6292
2017-07-17T12:59:37.097Z,6260
2017-07-17T12:59:50.557Z,6280
2017-07-17T13:00:04.027Z,6292
2017-07-17T13:00:16.963Z,6260
2017-07-17T13:00:30.425Z,6268
2017-07-17T13:00:43.858Z,6312
2017-07-17T13:00:57.316Z,6296
2017-07-17T13:01:09.641Z,6292
2017-07-17T13:01:22.515Z,6356
2017-07-17T13:01:35.901Z,6304
2017-07-17T13:01:48.823Z,6284
2017-07-17T13:02:02.299Z,6292
2017-07-17T13:02:14.600Z,6308
2017-07-17T13:02:26.938Z,6296
2017-07-17T13:02:39.802Z,6300
2017-07-17T13:02:53.263Z,6308
2017-07-17T13:03:05.710Z,6328
2017-07-17T13:03:19.192Z,6312
2017-07-17T13:03:32.042Z,6300
2017-07-17T13:03:44.475Z,6316
2017-07-17T13:03:56.308Z,6308
2017-07-17T13:04:09.212Z,6284
2017-07-17T13:04:22.613Z,6300
2017-07-17T13:04:36.025Z,6308
2017-07-17T13:04:48.975Z,6312
2017-07-17T13:05:02.440Z,6292
2017-07-17T13:05:14.825Z,6292
2017-07-17T13:05:28.303Z,6316
2017-07-17T13:05:41.747Z,6296
2017-07-17T13:05:54.700Z,6312
2017-07-17T13:06:08.219Z,6304
2017-07-17T13:06:21.720Z,6316
2017-07-17T13:06:35.179Z,6328
2017-07-17T13:06:48.072Z,6324
2017-07-17T13:07:01.490Z,6336
2017-07-17T13:07:14.968Z,6328
2017-07-17T13:07:27.905Z,6324
2017-07-17T13:07:41.384Z,6316
2017-07-17T13:07:54.859Z,6316
2017-07-17T13:08:08.364Z,6316
2017-07-17T13:08:20.717Z,6324
2017-07-17T13:08:33.590Z,6312
2017-07-17T13:08:46.970Z,6324
2017-07-17T13:09:00.452Z,6336
2017-07-17T13:09:13.396Z,6344
2017-07-17T13:09:26.770Z,6340
2017-07-17T13:09:39.197Z,6340
2017-07-17T13:09:52.122Z,6344
2017-07-17T13:10:05.102Z,6352
2017-07-17T13:10:18.046Z,6324
2017-07-17T13:10:31.538Z,6316
2017-07-17T13:10:44.465Z,6332
2017-07-17T13:10:57.389Z,6328
2017-07-17T13:11:10.315Z,6336
2017-07-17T13:11:24.009Z,6324
2017-07-17T13:11:37.486Z,6332
2017-07-17T13:11:50.941Z,6352
2017-07-17T13:12:03.864Z,6324
2017-07-17T13:12:17.334Z,6348
2017-07-17T13:12:30.240Z,6332
2017-07-17T13:12:43.671Z,6340
2017-07-17T13:12:57.160Z,6340
2017-07-17T13:13:09.539Z,6348
2017-07-17T13:13:23.042Z,6328
2017-07-17T13:13:36.510Z,6336
2017-07-17T13:13:49.456Z,6372
2017-07-17T13:14:02.916Z,6364
2017-07-17T13:14:16.400Z,6356
2017-07-17T13:14:29.764Z,6340
2017-07-17T13:14:42.718Z,6392
2017-07-17T13:14:56.120Z,6324
2017-07-17T13:15:09.590Z,6348
2017-07-17T13:15:23.116Z,6344
2017-07-17T13:15:36.039Z,6336
2017-07-17T13:15:48.980Z,6324
2017-07-17T13:16:01.868Z,6364
2017-07-17T13:16:13.733Z,6388
2017-07-17T13:16:27.188Z,6352
2017-07-17T13:16:40.712Z,6348
2017-07-17T13:16:53.062Z,6352
2017-07-17T13:17:06.492Z,6344
2017-07-17T13:17:21.641Z,6348
2017-07-17T13:17:35.113Z,6368
2017-07-17T13:17:47.995Z,6360
2017-07-17T13:18:01.386Z,6352
2017-07-17T13:18:14.854Z,6348
2017-07-17T13:18:28.306Z,6360
2017-07-17T13:18:41.774Z,6364
2017-07-17T13:18:55.622Z,6380
2017-07-17T13:19:07.990Z,6368
2017-07-17T13:19:21.372Z,6364
2017-07-17T13:19:34.881Z,6368
2017-07-17T13:19:47.794Z,6356
2017-07-17T13:20:01.229Z,6356
2017-07-17T13:20:14.245Z,6384
2017-07-17T13:20:27.720Z,6340
2017-07-17T13:20:41.151Z,6392
2017-07-17T13:20:53.059Z,6328
2017-07-17T13:21:06.575Z,6364
2017-07-17T13:21:20.028Z,6360
2017-07-17T13:21:32.405Z,6328
2017-07-17T13:21:46.085Z,6356
2017-07-17T13:21:59.591Z,6360
2017-07-17T13:22:12.556Z,6376
2017-07-17T13:22:25.446Z,6400
2017-07-17T13:22:38.907Z,6376
2017-07-17T13:22:52.357Z,6368
2017-07-17T13:23:05.787Z,6344
2017-07-17T13:23:18.810Z,6352
2017-07-17T13:23:32.303Z,6344
2017-07-17T13:23:45.222Z,6352
2017-07-17T13:23:58.654Z,6356
2017-07-17T13:24:11.583Z,6372
2017-07-17T13:24:23.990Z,6364
2017-07-17T13:24:36.397Z,6344
2017-07-17T13:24:48.753Z,6360
2017-07-17T13:25:02.223Z,6364
2017-07-17T13:25:14.581Z,6344
2017-07-17T13:25:27.984Z,6368
2017-07-17T13:25:40.848Z,6356
2017-07-17T13:25:53.779Z,6368
2017-07-17T13:26:07.231Z,6368
2017-07-17T13:26:20.683Z,6380
2017-07-17T13:26:33.583Z,6376
2017-07-17T13:26:47.041Z,6376
2017-07-17T13:27:00.578Z,6360
2017-07-17T13:27:13.512Z,6368
2017-07-17T13:27:26.990Z,6380
2017-07-17T13:27:39.898Z,6380
2017-07-17T13:27:52.862Z,6384
2017-07-17T13:28:06.308Z,6392
2017-07-17T13:28:19.249Z,6376
2017-07-17T13:28:32.128Z,6376
2017-07-17T13:28:45.060Z,6392
2017-07-17T13:28:57.505Z,6384
2017-07-17T13:29:10.942Z,6380
2017-07-17T13:29:23.837Z,6384
2017-07-17T13:29:37.315Z,6392
2017-07-17T13:29:50.226Z,6384
2017-07-17T13:30:03.118Z,6368
2017-07-17T13:30:16.591Z,6380
2017-07-17T13:30:30.041Z,6376
2017-07-17T13:30:43.017Z,6364
2017-07-17T13:30:55.936Z,6368
2017-07-17T13:31:08.269Z,6376
2017-07-17T13:31:21.151Z,6372
2017-07-17T13:31:34.089Z,6380
2017-07-17T13:31:47.005Z,6380
2017-07-17T13:31:59.945Z,6412
2017-07-17T13:32:12.872Z,6412
2017-07-17T13:32:25.804Z,6408
2017-07-17T13:32:38.649Z,6412
2017-07-17T13:32:52.069Z,6400
2017-07-17T13:33:04.994Z,6400
2017-07-17T13:33:17.933Z,6396
2017-07-17T13:33:31.340Z,6408
2017-07-17T13:33:44.285Z,6388
2017-07-17T13:33:57.742Z,6400
2017-07-17T13:34:11.617Z,6388
2017-07-17T13:34:25.060Z,6396
2017-07-17T13:34:38.001Z,6412
2017-07-17T13:34:51.075Z,6400
2017-07-17T13:35:05.047Z,6388
2017-07-17T13:35:18.206Z,6388
2017-07-17T13:35:31.159Z,6404
2017-07-17T13:35:44.643Z,6416
2017-07-17T13:35:58.083Z,6392
2017-07-17T13:36:11.563Z,6372
2017-07-17T13:36:23.928Z,6408
2017-07-17T13:36:37.403Z,6388
2017-07-17T13:36:50.811Z,6356
2017-07-17T13:37:03.752Z,6396
2017-07-17T13:37:17.191Z,6372
2017-07-17T13:37:30.645Z,6380
2017-07-17T13:37:44.054Z,6380
2017-07-17T13:37:56.416Z,6372
2017-07-17T13:38:09.304Z,6424
2017-07-17T13:38:21.692Z,6384
2017-07-17T13:38:35.148Z,6376
2017-07-17T13:38:48.603Z,6364
2017-07-17T13:39:01.756Z,6372
2017-07-17T13:39:14.698Z,6400
2017-07-17T13:39:28.153Z,6408
2017-07-17T13:39:41.021Z,6408
2017-07-17T13:39:54.480Z,6412
2017-07-17T13:40:07.457Z,6408
2017-07-17T13:40:20.954Z,6400
2017-07-17T13:40:33.913Z,6400
2017-07-17T13:40:47.319Z,6388
2017-07-17T13:41:00.221Z,6392
2017-07-17T13:41:12.661Z,6380
2017-07-17T13:41:25.609Z,6388
2017-07-17T13:41:38.486Z,6392
2017-07-17T13:41:51.892Z,6412
2017-07-17T13:42:05.281Z,6404
2017-07-17T13:42:18.204Z,6352
2017-07-17T13:42:31.145Z,6336
2017-07-17T13:42:44.593Z,6396
2017-07-17T13:42:58.097Z,6368
2017-07-17T13:43:10.929Z,6384
2017-07-17T13:43:24.339Z,6380
2017-07-17T13:43:36.719Z,6400
2017-07-17T13:43:50.178Z,6388
2017-07-17T13:44:03.053Z,6396
2017-07-17T13:44:16.528Z,6396
2017-07-17T13:44:29.983Z,6384
2017-07-17T13:44:42.901Z,6360
2017-07-17T13:44:55.299Z,6396
2017-07-17T13:45:07.688Z,6408
2017-07-17T13:45:21.123Z,6404
2017-07-17T13:45:33.504Z,6400
2017-07-17T13:45:46.401Z,6344
2017-07-17T13:45:59.818Z,6344
2017-07-17T13:46:12.732Z,6380
2017-07-17T13:46:25.607Z,6392
2017-07-17T13:46:39.142Z,6364
2017-07-17T13:46:51.476Z,6372
2017-07-17T13:47:04.361Z,6352
2017-07-17T13:47:17.764Z,6388
2017-07-17T13:47:31.199Z,6392
2017-07-17T13:47:44.158Z,6328
2017-07-17T13:47:57.094Z,6340
2017-07-17T13:48:10.558Z,6376
2017-07-17T13:48:23.505Z,6368
2017-07-17T13:48:35.880Z,6356
2017-07-17T13:48:48.222Z,6372
2017-07-17T13:49:01.184Z,6388
2017-07-17T13:49:14.517Z,6324
2017-07-17T13:49:27.988Z,6328
2017-07-17T13:49:41.413Z,6404
2017-07-17T13:49:54.364Z,6384
2017-07-17T13:50:07.324Z,6380
2017-07-17T13:50:19.695Z,6380
2017-07-17T13:50:33.144Z,6388
2017-07-17T13:50:45.489Z,6408
2017-07-17T13:50:58.436Z,6368
2017-07-17T13:51:11.363Z,6400
2017-07-17T13:51:24.324Z,6348
2017-07-17T13:51:36.697Z,6376
2017-07-17T13:51:50.177Z,6396
2017-07-17T13:52:02.603Z,6392
2017-07-17T13:52:14.990Z,6436
2017-07-17T13:52:27.944Z,6408
2017-07-17T13:52:40.873Z,6392
2017-07-17T13:52:53.252Z,6392
2017-07-17T13:53:05.364Z,6424
2017-07-17T13:53:18.301Z,6396
2017-07-17T13:53:31.762Z,6420
2017-07-17T13:53:45.230Z,6432
2017-07-17T13:53:58.650Z,6404
2017-07-17T13:54:11.242Z,6400
2017-07-17T13:54:24.750Z,6384
2017-07-17T13:54:38.185Z,6404
2017-07-17T13:54:51.120Z,6384
2017-07-17T13:55:04.586Z,6384
2017-07-17T13:55:18.040Z,6412
2017-07-17T13:55:31.498Z,6456
2017-07-17T13:55:44.920Z,6416
2017-07-17T13:55:57.847Z,6432
2017-07-17T13:56:11.264Z,6444
2017-07-17T13:56:24.733Z,6436
2017-07-17T13:56:38.231Z,6424
2017-07-17T13:56:51.655Z,6356
2017-07-17T13:57:05.171Z,6372
2017-07-17T13:57:18.092Z,6408
2017-07-17T13:57:31.535Z,6432
2017-07-17T13:57:45.050Z,6432
2017-07-17T13:57:58.491Z,6428
2017-07-17T13:58:11.428Z,6472
2017-07-17T13:58:24.823Z,6416
2017-07-17T13:58:38.296Z,6412
2017-07-17T13:58:51.748Z,6424
2017-07-17T13:59:04.675Z,6436
2017-07-17T13:59:17.712Z,6380
2017-07-17T13:59:31.223Z,6440
2017-07-17T13:59:44.660Z,6436
2017-07-17T13:59:58.109Z,6444
2017-07-17T14:00:11.070Z,6424
2017-07-17T14:00:23.508Z,6416
2017-07-17T14:00:36.954Z,6440
2017-07-17T14:00:50.453Z,6448
2017-07-17T14:01:03.413Z,6404
2017-07-17T14:01:16.908Z,6460
2017-07-17T14:01:30.320Z,6452
2017-07-17T14:01:43.230Z,6444
2017-07-17T14:01:56.153Z,6456
2017-07-17T14:02:09.111Z,6452
2017-07-17T14:02:22.027Z,6444
2017-07-17T14:02:35.477Z,6440
2017-07-17T14:02:48.400Z,6460
2017-07-17T14:03:01.881Z,6460
2017-07-17T14:03:14.810Z,6452
2017-07-17T14:03:28.335Z,6432
2017-07-17T14:03:41.798Z,6456
2017-07-17T14:03:55.166Z,6424
2017-07-17T14:04:08.553Z,6452
2017-07-17T14:04:22.131Z,6420
2017-07-17T14:04:34.503Z,6452
2017-07-17T14:04:47.414Z,6424
2017-07-17T14:05:00.387Z,6436
2017-07-17T14:05:13.880Z,6452
2017-07-17T14:05:27.387Z,6460
2017-07-17T14:05:40.828Z,6456
2017-07-17T14:05:54.280Z,6448
2017-07-17T14:06:07.730Z,6452
2017-07-17T14:06:20.138Z,6456
2017-07-17T14:06:33.608Z,6440
2017-07-17T14:06:47.054Z,6444
2017-07-17T14:07:00.443Z,6452
2017-07-17T14:07:13.928Z,6444
2017-07-17T14:07:27.406Z,6444
2017-07-17T14:07:40.882Z,6452
2017-07-17T14:07:53.798Z,6464
2017-07-17T14:08:06.746Z,6460
2017-07-17T14:08:19.639Z,6468
2017-07-17T14:08:33.083Z,6448
2017-07-17T14:08:46.012Z,6428
2017-07-17T14:08:59.455Z,6440
2017-07-17T14:09:12.928Z,6444
2017-07-17T14:09:25.836Z,6444
2017-07-17T14:09:39.385Z,6456
2017-07-17T14:09:52.375Z,6460
2017-07-17T14:10:05.807Z,6464
2017-07-17T14:10:18.674Z,6464
2017-07-17T14:10:32.117Z,6444
2017-07-17T14:10:45.096Z,6488
2017-07-17T14:10:58.021Z,6460
2017-07-17T14:11:11.436Z,6452
2017-07-17T14:11:24.426Z,6468
2017-07-17T14:11:36.829Z,6456
2017-07-17T14:11:49.780Z,6460
2017-07-17T14:12:02.221Z,6468
2017-07-17T14:12:14.642Z,6488
2017-07-17T14:12:28.085Z,6464
2017-07-17T14:12:40.935Z,6456
2017-07-17T14:12:54.405Z,6472
2017-07-17T14:13:07.319Z,6484
2017-07-17T14:13:20.755Z,6472
2017-07-17T14:13:33.618Z,6484
2017-07-17T14:13:47.135Z,6480
2017-07-17T14:14:00.038Z,6468
2017-07-17T14:14:13.602Z,6480
2017-07-17T14:14:26.530Z,6464
2017-07-17T14:14:40.016Z,6484
2017-07-17T14:14:52.912Z,6448
2017-07-17T14:15:06.359Z,6476
2017-07-17T14:15:19.242Z,6488
2017-07-17T14:15:32.639Z,6492
2017-07-17T14:15:45.553Z,6488
2017-07-17T14:15:58.994Z,6496
2017-07-17T14:16:11.963Z,6460
2017-07-17T14:16:25.376Z,6500
2017-07-17T14:16:38.875Z,6496
2017-07-17T14:16:51.802Z,6496
2017-07-17T14:17:04.744Z,6500
2017-07-17T14:17:16.648Z,6464
2017-07-17T14:17:29.541Z,6516
2017-07-17T14:17:42.447Z,6500
2017-07-17T14:17:55.896Z,6492
2017-07-17T14:18:07.779Z,6480
2017-07-17T14:18:21.283Z,6496
2017-07-17T14:18:34.759Z,6524
2017-07-17T14:18:48.283Z,6512
2017-07-17T14:19:01.770Z,6536
2017-07-17T14:19:15.200Z,6520
2017-07-17T14:19:29.254Z,6528
2017-07-17T14:19:42.656Z,6532
2017-07-17T14:19:55.589Z,6540
2017-07-17T14:20:08.526Z,6536
2017-07-17T14:20:22.014Z,6516
2017-07-17T14:20:34.872Z,6516
2017-07-17T14:20:47.816Z,6512
2017-07-17T14:21:01.236Z,6516
2017-07-17T14:21:14.156Z,6464
2017-07-17T14:21:27.607Z,6456
2017-07-17T14:21:39.999Z,6508
2017-07-17T14:21:52.938Z,6504
2017-07-17T14:22:06.389Z,6508
2017-07-17T14:22:19.834Z,6528
2017-07-17T14:22:33.328Z,6536
2017-07-17T14:22:46.338Z,6580
2017-07-17T14:22:59.751Z,6520
2017-07-17T14:23:12.674Z,6556
2017-07-17T14:23:26.142Z,6488
2017-07-17T14:23:39.114Z,6564
2017-07-17T14:23:52.076Z,6544
2017-07-17T14:24:05.515Z,6528
2017-07-17T14:24:18.441Z,6528
2017-07-17T14:24:31.347Z,6528
2017-07-17T14:24:44.290Z,6532
2017-07-17T14:24:56.142Z,6540
2017-07-17T14:25:09.084Z,6532
2017-07-17T14:25:21.981Z,6536
2017-07-17T14:25:35.382Z,6540
2017-07-17T14:25:47.773Z,6524
2017-07-17T14:26:01.242Z,6552
2017-07-17T14:26:13.650Z,6540
2017-07-17T14:26:26.616Z,6548
2017-07-17T14:26:40.072Z,6564
2017-07-17T14:26:52.436Z,6560
2017-07-17T14:27:04.817Z,6568
2017-07-17T14:27:18.259Z,6556
2017-07-17T14:27:31.194Z,6556
2017-07-17T14:27:44.662Z,6516
2017-07-17T14:27:58.047Z,6544
2017-07-17T14:28:09.949Z,6544
2017-07-17T14:28:23.402Z,6560
2017-07-17T14:28:36.830Z,6556
2017-07-17T14:28:49.738Z,6568
2017-07-17T14:29:02.095Z,6576
2017-07-17T14:29:15.497Z,6568
2017-07-17T14:29:28.999Z,6588
2017-07-17T14:29:42.473Z,6572
2017-07-17T14:29:55.438Z,6576
2017-07-17T14:30:07.856Z,6608
2017-07-17T14:30:21.295Z,6572
2017-07-17T14:30:34.776Z,6588
2017-07-17T14:30:48.204Z,6540
2017-07-17T14:31:01.175Z,6568
2017-07-17T14:31:14.636Z,6572
2017-07-17T14:31:28.080Z,6592
2017-07-17T14:31:41.500Z,6608
2017-07-17T14:31:53.852Z,6576
2017-07-17T14:32:07.401Z,6560
2017-07-17T14:32:20.938Z,6576
2017-07-17T14:32:34.418Z,6572
2017-07-17T14:32:47.837Z,6608
2017-07-17T14:33:01.228Z,6580
2017-07-17T14:33:14.149Z,6576
2017-07-17T14:33:27.612Z,6592
2017-07-17T14:33:41.024Z,6612
2017-07-17T14:33:54.469Z,6552
2017-07-17T14:34:07.934Z,6600
2017-07-17T14:34:20.887Z,6612
2017-07-17T14:34:34.412Z,6616
2017-07-17T14:34:46.782Z,6604
2017-07-17T14:34:59.692Z,6584
2017-07-17T14:35:13.140Z,6600
2017-07-17T14:35:26.585Z,6556
2017-07-17T14:35:39.977Z,6624
2017-07-17T14:35:53.431Z,6640
2017-07-17T14:36:06.946Z,6608
2017-07-17T14:36:19.899Z,6652
2017-07-17T14:36:33.334Z,6572
2017-07-17T14:36:45.747Z,6604
2017-07-17T14:36:58.652Z,6656
2017-07-17T14:37:10.497Z,6632
2017-07-17T14:37:23.979Z,6608
2017-07-17T14:37:36.916Z,6660
2017-07-17T14:37:50.371Z,6668
2017-07-17T14:38:03.879Z,6628
2017-07-17T14:38:17.421Z,6720
2017-07-17T14:38:30.821Z,6696
2017-07-17T14:38:44.303Z,6576
2017-07-17T14:38:57.769Z,6648